createdAt,value
2019-05-07T00:00:16.595Z,6.39
2019-05-07T00:02:42.860Z,6.44
2019-05-07T00:05:09.028Z,6.32
2019-05-07T00:07:34.915Z,6.21
2019-05-07T00:10:03.225Z,6.19
2019-05-07T00:12:28.812Z,6.29
2019-05-07T00:15:01.280Z,6.26
2019-05-07T00:17:22.952Z,6.34
2019-05-07T00:19:48.867Z,6.22
2019-05-07T00:22:14.713Z,6.21
2019-05-07T00:24:42.629Z,6.32
2019-05-07T00:27:08.327Z,6.37
2019-05-07T00:29:34.190Z,6.38
2019-05-07T00:32:00.051Z,6.32
2019-05-07T00:34:27.843Z,6.33
2019-05-07T00:37:02.199Z,6.22
2019-05-07T00:39:35.636Z,6.27
2019-05-07T00:42:06.207Z,6.24
2019-05-07T00:44:33.965Z,6.20
2019-05-07T00:47:02.082Z,6.30
2019-05-07T00:49:28.489Z,6.29
2019-05-07T00:51:54.553Z,6.22
2019-05-07T00:54:20.426Z,6.20
2019-05-07T00:56:46.273Z,6.21
2019-05-07T00:59:13.066Z,6.22
2019-05-07T01:01:39.096Z,6.14
2019-05-07T01:04:04.949Z,6.20
2019-05-07T01:06:32.900Z,6.20
2019-05-07T01:08:58.562Z,6.18
2019-05-07T01:11:24.413Z,6.00
2019-05-07T01:13:52.040Z,5.98
2019-05-07T01:16:18.029Z,6.04
2019-05-07T01:18:43.873Z,5.99
2019-05-07T01:21:09.842Z,5.90
2019-05-07T01:23:35.686Z,5.86
2019-05-07T01:26:03.085Z,5.83
2019-05-07T01:28:29.097Z,5.83
2019-05-07T01:30:54.950Z,5.83
2019-05-07T01:33:39.184Z,5.68
2019-05-07T01:36:09.982Z,5.71
2019-05-07T01:38:35.830Z,5.57
2019-05-07T01:41:02.863Z,5.69
2019-05-07T01:43:28.947Z,5.71
2019-05-07T01:45:54.794Z,5.66
2019-05-07T01:48:22.859Z,5.54
2019-05-07T01:50:48.394Z,5.50
2019-05-07T01:53:14.254Z,5.58
2019-05-07T01:55:40.142Z,5.62
2019-05-07T01:58:05.984Z,5.62
2019-05-07T02:00:32.631Z,5.54
2019-05-07T02:03:02.687Z,5.54
2019-05-07T02:05:32.466Z,5.58
2019-05-07T02:07:59.862Z,5.61
2019-05-07T02:10:42.939Z,5.60
2019-05-07T02:13:08.868Z,5.53
2019-05-07T02:15:34.704Z,5.53
2019-05-07T02:18:01.989Z,5.58
2019-05-07T02:20:28.037Z,5.66
2019-05-07T02:22:53.892Z,5.68
2019-05-07T02:25:22.055Z,5.70
2019-05-07T02:27:47.633Z,5.68
2019-05-07T02:30:14.806Z,5.65
2019-05-07T02:32:43.248Z,5.61
2019-05-07T02:35:08.894Z,5.64
2019-05-07T02:37:48.504Z,5.65
2019-05-07T02:40:14.194Z,5.63
2019-05-07T02:42:44.070Z,5.57
2019-05-07T02:45:13.498Z,5.65
2019-05-07T02:47:39.438Z,5.66
2019-05-07T02:50:12.930Z,5.72
2019-05-07T02:52:57.115Z,5.74
2019-05-07T02:55:27.681Z,5.77
2019-05-07T02:57:54.263Z,5.66
2019-05-07T03:00:23.804Z,5.68
2019-05-07T03:02:48.567Z,5.68
2019-05-07T03:05:14.404Z,5.76
2019-05-07T03:07:42.720Z,5.80
2019-05-07T03:10:08.334Z,5.80
2019-05-07T03:12:34.182Z,5.75
2019-05-07T03:15:04.075Z,5.69
2019-05-07T03:17:28.097Z,5.72
2019-05-07T03:19:55.063Z,5.72
2019-05-07T03:22:23.210Z,5.69
2019-05-07T03:24:56.135Z,5.68
2019-05-07T03:27:23.517Z,5.71
2019-05-07T03:29:53.428Z,5.76
2019-05-07T03:32:37.750Z,5.71
2019-05-07T03:35:08.589Z,5.70
2019-05-07T03:37:36.365Z,5.70
2019-05-07T03:40:04.924Z,5.71
2019-05-07T03:42:33.648Z,5.76
2019-05-07T03:45:03.711Z,5.73
2019-05-07T03:47:33.215Z,5.76
2019-05-07T03:49:59.081Z,5.76
2019-05-07T03:52:24.937Z,5.66
2019-05-07T03:54:53.837Z,5.65
2019-05-07T03:57:18.561Z,5.64
2019-05-07T03:59:44.427Z,5.59
2019-05-07T04:02:10.282Z,5.52
2019-05-07T04:04:36.147Z,5.54
2019-05-07T04:07:03.386Z,5.57
2019-05-07T04:09:29.541Z,5.50
2019-05-07T04:11:55.394Z,5.51
2019-05-07T04:14:23.131Z,5.47
2019-05-07T04:16:49.013Z,5.45
2019-05-07T04:19:14.884Z,5.48
2019-05-07T04:21:43.469Z,5.49
2019-05-07T04:24:13.620Z,5.53
2019-05-07T04:26:43.999Z,5.51
2019-05-07T04:29:19.255Z,5.47
2019-05-07T04:31:45.118Z,5.42
2019-05-07T04:34:13.562Z,5.41
2019-05-07T04:36:43.558Z,5.47
2019-05-07T04:39:09.217Z,5.42
2019-05-07T04:41:35.079Z,5.44
2019-05-07T04:44:03.503Z,5.44
2019-05-07T04:46:28.698Z,5.45
2019-05-07T04:48:54.587Z,5.42
2019-05-07T04:51:23.189Z,5.45
2019-05-07T04:53:49.203Z,5.48
2019-05-07T04:56:15.065Z,5.50
2019-05-07T04:58:43.260Z,5.53
2019-05-07T05:01:13.588Z,5.54
2019-05-07T05:03:39.351Z,5.65
2019-05-07T05:06:05.399Z,5.69
2019-05-07T05:08:32.526Z,5.71
2019-05-07T05:10:58.602Z,5.81
2019-05-07T05:13:24.446Z,5.83
2019-05-07T05:15:52.623Z,5.91
2019-05-07T05:18:18.158Z,6.01
2019-05-07T05:20:51.975Z,6.08
2019-05-07T05:23:37.742Z,6.13
2019-05-07T05:26:03.601Z,6.19
2019-05-07T05:28:29.467Z,6.25
2019-05-07T05:30:57.228Z,6.37
2019-05-07T05:33:23.590Z,6.45
2019-05-07T05:35:49.553Z,6.51
2019-05-07T05:38:15.401Z,6.62
2019-05-07T05:40:42.745Z,6.69
2019-05-07T05:43:12.688Z,6.70
2019-05-07T05:45:42.535Z,6.68
2019-05-07T05:48:08.758Z,6.67
2019-05-07T05:50:53.828Z,6.73
2019-05-07T05:53:38.188Z,6.77
2019-05-07T05:56:12.048Z,6.82
2019-05-07T05:58:43.141Z,6.88
2019-05-07T06:01:27.834Z,6.91
2019-05-07T06:03:58.537Z,6.97
2019-05-07T06:06:35.258Z,7.02
2019-05-07T06:09:21.773Z,7.03
2019-05-07T06:12:06.060Z,7.09
2019-05-07T06:14:50.658Z,7.09
2019-05-07T06:17:32.038Z,7.09
2019-05-07T06:20:12.238Z,7.16
2019-05-07T06:22:42.343Z,7.17
2019-05-07T06:25:09.723Z,7.19
2019-05-07T06:27:35.574Z,7.17
2019-05-07T06:30:04.500Z,7.23
2019-05-07T06:32:29.314Z,7.24
2019-05-07T06:34:55.161Z,7.31
2019-05-07T06:37:22.842Z,7.34
2019-05-07T06:40:07.148Z,7.41
2019-05-07T06:42:44.053Z,7.43
2019-05-07T06:45:28.454Z,7.37
2019-05-07T06:47:54.300Z,7.33
2019-05-07T06:50:22.112Z,7.39
2019-05-07T06:52:47.931Z,7.39
2019-05-07T06:55:13.849Z,7.59
2019-05-07T06:57:39.710Z,7.68
2019-05-07T07:00:22.448Z,7.65
2019-05-07T07:02:49.909Z,8.02
2019-05-07T07:05:17.970Z,8.27
2019-05-07T07:07:48.500Z,8.40
2019-05-07T07:10:28.707Z,8.39
2019-05-07T07:12:54.675Z,8.69
2019-05-07T07:15:23.038Z,8.80
2019-05-07T07:17:48.277Z,8.81
2019-05-07T07:20:14.453Z,8.77
2019-05-07T07:22:42.442Z,8.84
2019-05-07T07:25:08.159Z,8.91
2019-05-07T07:27:34.014Z,9.17
2019-05-07T07:30:07.515Z,9.10
2019-05-07T07:32:35.275Z,9.37
2019-05-07T07:35:02.411Z,9.73
2019-05-07T07:37:33.164Z,9.57
2019-05-07T07:40:16.146Z,9.60
2019-05-07T07:42:42.644Z,9.66
2019-05-07T07:45:16.430Z,9.73
2019-05-07T07:47:43.377Z,9.61
2019-05-07T07:50:09.741Z,9.91
2019-05-07T07:52:35.594Z,10.10
2019-05-07T07:55:02.227Z,10.16
2019-05-07T07:57:46.562Z,10.16
2019-05-07T08:00:20.244Z,10.30
2019-05-07T08:02:47.898Z,10.19
2019-05-07T08:05:13.769Z,10.14
2019-05-07T08:07:39.667Z,10.40
2019-05-07T08:10:06.534Z,10.80
2019-05-07T08:12:32.606Z,11.09
2019-05-07T08:15:13.298Z,11.27
2019-05-07T08:17:26.312Z,11.73
2019-05-07T08:19:52.199Z,12.13
2019-05-07T08:22:18.045Z,11.94
2019-05-07T08:24:43.892Z,12.13
2019-05-07T08:27:10.160Z,12.07
2019-05-07T08:29:36.003Z,12.09
2019-05-07T08:32:18.537Z,12.10
2019-05-07T08:34:55.257Z,12.22
2019-05-07T08:37:24.231Z,12.26
2019-05-07T08:39:48.870Z,12.30
2019-05-07T08:42:14.721Z,12.47
2019-05-07T08:44:52.026Z,12.77
2019-05-07T08:47:19.888Z,13.10
2019-05-07T08:49:45.739Z,13.40
2019-05-07T08:52:12.118Z,12.97
2019-05-07T08:57:08.613Z,13.17
2019-05-07T08:59:35.179Z,13.39
2019-05-07T09:02:02.894Z,13.75
2019-05-07T09:04:28.998Z,13.94
2019-05-07T09:06:54.961Z,13.65
2019-05-07T09:09:22.178Z,13.33
2019-05-07T09:11:48.181Z,13.33
2019-05-07T09:14:14.051Z,13.37
2019-05-07T09:16:42.415Z,13.50
2019-05-07T09:19:07.803Z,13.42
2019-05-07T09:21:36.916Z,12.69
2019-05-07T09:24:04.582Z,12.22
2019-05-07T09:26:44.153Z,12.26
2019-05-07T09:29:14.676Z,12.88
2019-05-07T09:31:48.313Z,13.08
2019-05-07T09:34:14.173Z,13.17
2019-05-07T09:36:42.474Z,12.97
2019-05-07T09:39:08.887Z,12.96
2019-05-07T09:41:34.757Z,12.48
2019-05-07T09:44:03.017Z,13.43
2019-05-07T09:46:28.398Z,13.43
2019-05-07T09:48:55.158Z,13.03
2019-05-07T09:51:22.679Z,14.01
2019-05-07T09:53:48.693Z,14.34
2019-05-07T09:56:14.538Z,14.17
2019-05-07T09:58:42.428Z,13.73
2019-05-07T10:01:08.172Z,13.46
2019-05-07T10:03:34.133Z,13.16
2019-05-07T10:06:02.061Z,13.10
2019-05-07T10:08:27.849Z,12.51
2019-05-07T10:10:53.800Z,12.47
2019-05-07T10:13:22.573Z,12.80
2019-05-07T10:15:48.607Z,12.46
2019-05-07T10:18:16.080Z,12.50
2019-05-07T10:20:42.224Z,12.67
2019-05-07T10:23:11.636Z,12.65
2019-05-07T10:25:37.571Z,12.56
2019-05-07T10:28:03.458Z,12.61
2019-05-07T10:30:29.420Z,12.78
2019-05-07T10:32:55.283Z,12.95
2019-05-07T10:35:22.931Z,12.52
2019-05-07T10:37:48.915Z,12.64
2019-05-07T10:40:15.061Z,12.76
2019-05-07T10:42:43.083Z,12.98
2019-05-07T10:45:27.666Z,12.91
2019-05-07T10:48:12.257Z,12.84
2019-05-07T10:50:39.999Z,12.88
2019-05-07T10:53:05.850Z,12.88
2019-05-07T10:55:32.850Z,12.85
2019-05-07T10:57:58.877Z,13.06
2019-05-07T11:00:25.645Z,13.29
2019-05-07T11:02:51.913Z,13.14
2019-05-07T11:05:17.813Z,13.01
2019-05-07T11:07:43.692Z,13.39
2019-05-07T11:10:12.205Z,13.63
2019-05-07T11:12:37.918Z,14.06
2019-05-07T11:15:05.699Z,14.38
2019-05-07T11:17:39.592Z,14.29
2019-05-07T11:20:12.031Z,13.96
2019-05-07T11:22:37.825Z,13.78
2019-05-07T11:25:05.080Z,13.39
2019-05-07T11:27:33.039Z,12.94
2019-05-07T11:29:58.761Z,12.96
2019-05-07T11:32:24.666Z,12.89
2019-05-07T11:34:52.655Z,13.21
2019-05-07T11:37:18.333Z,13.14
2019-05-07T11:39:44.190Z,13.17
2019-05-07T11:42:22.002Z,13.03
2019-05-07T11:44:48.084Z,12.72
2019-05-07T11:47:18.861Z,12.93
2019-05-07T11:50:03.320Z,13.12
2019-05-07T11:52:35.171Z,13.12
2019-05-07T11:54:59.023Z,12.69
2019-05-07T11:57:24.894Z,12.86
2019-05-07T11:59:51.620Z,12.76
2019-05-07T12:02:18.606Z,12.73
2019-05-07T12:04:44.461Z,12.58
2019-05-07T12:07:11.878Z,12.52
2019-05-07T12:09:37.892Z,12.47
2019-05-07T12:12:03.773Z,12.38
2019-05-07T12:14:32.511Z,12.26
2019-05-07T12:16:57.477Z,12.18
2019-05-07T12:19:23.343Z,12.30
2019-05-07T12:21:49.204Z,12.46
2019-05-07T12:24:16.502Z,12.46
2019-05-07T12:26:43.430Z,12.54
2019-05-07T12:29:09.284Z,12.52
2019-05-07T12:31:37.100Z,12.53
2019-05-07T12:34:04.872Z,12.50
2019-05-07T12:36:32.059Z,12.51
2019-05-07T12:38:57.997Z,12.47
2019-05-07T12:41:33.133Z,12.40
2019-05-07T12:44:02.713Z,12.48
2019-05-07T12:46:29.657Z,12.52
2019-05-07T12:48:55.712Z,12.81
2019-05-07T12:51:33.508Z,12.77
2019-05-07T12:54:08.478Z,12.57
2019-05-07T12:56:34.365Z,12.77
2019-05-07T12:59:02.170Z,12.61
2019-05-07T13:01:39.005Z,12.85
2019-05-07T13:04:12.940Z,12.56
2019-05-07T13:06:43.729Z,12.75
2019-05-07T13:09:09.882Z,12.58
2019-05-07T13:11:35.776Z,12.57
2019-05-07T13:14:02.209Z,12.38
2019-05-07T13:16:28.025Z,12.63
2019-05-07T13:18:53.887Z,12.64
2019-05-07T13:21:19.777Z,12.22
2019-05-07T13:23:45.637Z,12.32
2019-05-07T13:26:11.681Z,12.58
2019-05-07T13:28:37.538Z,12.58
2019-05-07T13:31:03.388Z,12.35
2019-05-07T13:33:34.476Z,12.25
2019-05-07T13:36:02.171Z,12.23
2019-05-07T13:38:35.729Z,12.22
2019-05-07T13:41:03.612Z,12.30
2019-05-07T13:43:31.373Z,12.27
2019-05-07T13:46:02.595Z,12.23
2019-05-07T13:48:28.433Z,12.57
2019-05-07T13:50:54.718Z,12.67
2019-05-07T13:53:22.691Z,12.35
2019-05-07T13:55:48.438Z,12.60
2019-05-07T13:58:14.605Z,12.93
2019-05-07T14:00:59.237Z,13.36
2019-05-07T14:03:25.289Z,13.29
2019-05-07T14:05:51.712Z,13.40
2019-05-07T14:08:18.565Z,13.06
2019-05-07T14:10:44.430Z,13.41
2019-05-07T14:13:16.704Z,13.39
2019-05-07T14:15:42.616Z,13.15
2019-05-07T14:18:08.108Z,13.28
2019-05-07T14:20:33.964Z,13.25
2019-05-07T14:22:59.845Z,13.47
2019-05-07T14:25:25.696Z,13.14
2019-05-07T14:27:52.645Z,13.35
2019-05-07T14:30:19.010Z,13.49
2019-05-07T14:32:49.297Z,13.52
2019-05-07T14:35:22.969Z,13.44
2019-05-07T14:37:52.389Z,13.20
2019-05-07T14:40:18.386Z,13.13
2019-05-07T14:42:46.295Z,13.05
2019-05-07T14:45:12.808Z,13.16
2019-05-07T14:47:38.657Z,13.24
2019-05-07T14:50:05.448Z,13.24
2019-05-07T14:52:35.527Z,13.28
2019-05-07T14:54:59.599Z,13.08
2019-05-07T14:57:25.466Z,12.99
2019-05-07T14:59:52.390Z,12.94
2019-05-07T15:02:18.596Z,13.05
2019-05-07T15:04:44.441Z,13.22
2019-05-07T15:07:12.039Z,13.31
2019-05-07T15:09:38.109Z,12.92
2019-05-07T15:12:04.021Z,13.13
2019-05-07T15:14:31.855Z,13.16
2019-05-07T15:17:02.185Z,13.18
2019-05-07T15:19:27.790Z,13.20
2019-05-07T15:21:56.062Z,13.36
2019-05-07T15:24:22.413Z,13.20
2019-05-07T15:26:50.169Z,13.07
2019-05-07T15:29:16.025Z,13.27
2019-05-07T15:31:43.777Z,13.06
2019-05-07T15:34:12.242Z,13.00
2019-05-07T15:36:37.880Z,12.98
2019-05-07T15:39:25.506Z,13.13
2019-05-07T15:41:51.824Z,13.16
2019-05-07T15:44:17.843Z,13.32
2019-05-07T15:46:43.750Z,13.32
2019-05-07T15:49:09.648Z,13.31
2019-05-07T15:51:35.508Z,13.30
2019-05-07T15:54:03.412Z,13.26
2019-05-07T15:56:29.348Z,13.52
2019-05-07T15:58:55.217Z,13.37
2019-05-07T16:01:22.150Z,13.37
2019-05-07T16:03:48.478Z,13.58
2019-05-07T16:06:14.330Z,13.73
2019-05-07T16:08:42.656Z,14.34
2019-05-07T16:11:08.827Z,14.38
2019-05-07T16:13:36.890Z,14.59
2019-05-07T16:16:02.873Z,14.61
2019-05-07T16:18:42.857Z,14.74
2019-05-07T16:21:08.801Z,14.81
2019-05-07T16:23:34.655Z,14.84
2019-05-07T16:26:02.389Z,14.79
2019-05-07T16:28:28.292Z,14.73
2019-05-07T16:30:54.180Z,14.89
2019-05-07T16:33:20.005Z,14.45
2019-05-07T16:35:45.865Z,14.65
2019-05-07T16:38:14.429Z,14.75
2019-05-07T16:40:39.549Z,14.71
2019-05-07T16:43:05.408Z,14.53
2019-05-07T16:45:31.251Z,14.62
2019-05-07T16:47:57.110Z,14.50
2019-05-07T16:50:22.965Z,14.56
2019-05-07T16:52:48.807Z,14.65
2019-05-07T16:55:14.784Z,14.56
2019-05-07T16:57:42.574Z,14.54
2019-05-07T17:00:10.919Z,14.54
2019-05-07T17:02:47.633Z,14.58
2019-05-07T17:05:14.477Z,14.56
2019-05-07T17:08:02.465Z,14.34
2019-05-07T17:10:28.394Z,14.39
2019-05-07T17:12:54.272Z,14.28
2019-05-07T17:15:20.240Z,14.24
2019-05-07T17:17:47.991Z,14.28
2019-05-07T17:20:14.441Z,14.24
2019-05-07T17:22:40.311Z,14.28
2019-05-07T17:25:25.328Z,14.19
2019-05-07T17:27:52.120Z,14.12
2019-05-07T17:30:18.165Z,14.18
2019-05-07T17:32:44.022Z,13.97
2019-05-07T17:35:09.984Z,14.02
2019-05-07T17:37:35.840Z,14.01
2019-05-07T17:40:03.695Z,13.91
2019-05-07T17:42:29.553Z,13.84
2019-05-07T17:44:55.407Z,13.74
2019-05-07T17:47:21.852Z,13.65
2019-05-07T17:49:47.901Z,13.50
2019-05-07T17:52:13.760Z,13.59
2019-05-07T17:54:39.622Z,13.52
2019-05-07T17:57:05.477Z,13.45
2019-05-07T17:59:32.081Z,13.42
2019-05-07T18:02:02.742Z,13.34
2019-05-07T18:04:29.305Z,13.31
2019-05-07T18:06:55.152Z,13.26
2019-05-07T18:09:22.548Z,13.21
2019-05-07T18:11:48.578Z,13.13
2019-05-07T18:14:14.453Z,13.03
2019-05-07T18:16:57.043Z,12.96
2019-05-07T18:19:22.893Z,12.85
2019-05-07T18:21:48.758Z,12.80
2019-05-07T18:24:16.794Z,12.64
2019-05-07T18:26:42.446Z,12.60
2019-05-07T18:29:08.302Z,12.61
2019-05-07T18:31:47.965Z,12.53
2019-05-07T18:34:14.046Z,12.48
2019-05-07T18:36:41.785Z,12.36
2019-05-07T18:39:07.855Z,12.12
2019-05-07T18:41:33.719Z,12.13
2019-05-07T18:44:10.056Z,12.06
2019-05-07T18:46:27.386Z,12.04
2019-05-07T18:48:53.279Z,11.97
2019-05-07T18:51:19.133Z,11.71
2019-05-07T18:53:45.029Z,11.66
2019-05-07T18:56:12.645Z,11.57
2019-05-07T18:58:38.948Z,11.63
2019-05-07T19:01:07.187Z,11.59
2019-05-07T19:03:33.062Z,11.58
2019-05-07T19:05:58.929Z,11.50
2019-05-07T19:08:24.783Z,11.38
2019-05-07T19:10:52.180Z,11.20
2019-05-07T19:13:18.225Z,11.29
2019-05-07T19:15:44.151Z,11.30
2019-05-07T19:18:12.024Z,11.29
2019-05-07T19:20:37.957Z,11.13
2019-05-07T19:23:03.897Z,11.00
2019-05-07T19:25:29.766Z,10.95
2019-05-07T19:27:55.708Z,11.00
2019-05-07T19:30:21.863Z,10.99
2019-05-07T19:32:47.713Z,10.88
2019-05-07T19:35:13.790Z,10.91
2019-05-07T19:37:39.685Z,10.91
2019-05-07T19:40:05.625Z,10.79
2019-05-07T19:42:31.917Z,10.62
2019-05-07T19:44:57.907Z,10.64
2019-05-07T19:47:23.834Z,10.63
2019-05-07T19:49:49.688Z,10.47
2019-05-07T19:52:15.538Z,10.47
2019-05-07T19:54:44.363Z,10.47
2019-05-07T19:57:11.855Z,10.54
2019-05-07T19:59:37.923Z,10.48
2019-05-07T20:02:05.798Z,10.36
2019-05-07T20:04:32.141Z,10.32
2019-05-07T20:06:58.532Z,10.33
2019-05-07T20:09:26.289Z,10.27
2019-05-07T20:11:52.463Z,10.15
2019-05-07T20:14:18.301Z,10.09
2019-05-07T20:16:44.168Z,10.18
2019-05-07T20:19:11.887Z,10.15
2019-05-07T20:21:37.984Z,10.10
2019-05-07T20:24:04.148Z,10.06
2019-05-07T20:26:32.099Z,10.06
2019-05-07T20:28:57.773Z,9.95
2019-05-07T20:31:23.828Z,9.86
2019-05-07T20:33:49.846Z,9.74
2019-05-07T20:36:15.717Z,9.60
2019-05-07T20:38:42.716Z,9.74
2019-05-07T20:41:08.746Z,9.82
2019-05-07T20:43:34.615Z,9.68
2019-05-07T20:46:02.580Z,9.69
2019-05-07T20:48:28.283Z,9.70
2019-05-07T20:50:54.137Z,9.56
2019-05-07T20:53:21.916Z,9.60
2019-05-07T20:55:52.975Z,9.69
2019-05-07T20:58:18.982Z,9.67
2019-05-07T21:00:44.874Z,9.58
2019-05-07T21:03:19.869Z,9.51
2019-05-07T21:05:48.317Z,9.47
2019-05-07T21:08:14.204Z,9.43
2019-05-07T21:10:42.449Z,9.30
2019-05-07T21:13:07.963Z,9.35
2019-05-07T21:15:33.831Z,9.38
2019-05-07T21:17:59.737Z,9.47
2019-05-07T21:20:25.542Z,9.53
2019-05-07T21:22:51.937Z,9.51
2019-05-07T21:25:17.960Z,9.46
2019-05-07T21:27:43.828Z,9.57
2019-05-07T21:30:09.885Z,9.57
2019-05-07T21:32:35.759Z,9.53
2019-05-07T21:35:01.623Z,9.49
2019-05-07T21:37:27.478Z,9.51
2019-05-07T21:39:53.334Z,9.45
2019-05-07T21:42:19.193Z,9.48
2019-05-07T21:44:45.043Z,9.62
2019-05-07T21:47:12.646Z,9.59
2019-05-07T21:49:38.911Z,9.59
2019-05-07T21:52:04.804Z,9.59
2019-05-07T21:54:35.426Z,9.47
2019-05-07T21:57:05.939Z,9.57
2019-05-07T21:59:35.812Z,9.53
2019-05-07T22:02:06.486Z,9.48
2019-05-07T22:04:32.422Z,9.34
2019-05-07T22:06:58.310Z,9.47
2019-05-07T22:09:24.144Z,9.42
2019-05-07T22:11:53.479Z,9.35
2019-05-07T22:14:17.771Z,9.16
2019-05-07T22:16:43.635Z,9.27
2019-05-07T22:19:11.923Z,9.30
2019-05-07T22:21:37.350Z,9.26
2019-05-07T22:24:03.427Z,9.34
2019-05-07T22:26:29.289Z,9.16
2019-05-07T22:28:55.140Z,9.26
2019-05-07T22:31:25.742Z,9.15
2019-05-07T22:34:08.600Z,9.25
2019-05-07T22:36:34.460Z,9.26
2019-05-07T22:39:01.999Z,9.38
2019-05-07T22:41:27.988Z,9.29
2019-05-07T22:43:53.842Z,9.33
2019-05-07T22:46:22.076Z,9.26
2019-05-07T22:48:47.458Z,9.21
2019-05-07T22:51:13.327Z,9.22
2019-05-07T22:53:40.733Z,9.15
2019-05-07T22:56:06.594Z,9.30
2019-05-07T22:58:34.358Z,9.20
2019-05-07T23:01:04.651Z,9.21
2019-05-07T23:03:32.312Z,9.22
2019-05-07T23:06:02.635Z,9.09
2019-05-07T23:08:27.937Z,9.09
2019-05-07T23:10:53.804Z,9.18
2019-05-07T23:13:19.690Z,9.27
2019-05-07T23:15:45.551Z,9.18
2019-05-07T23:18:12.977Z,9.12
2019-05-07T23:20:38.965Z,9.03
2019-05-07T23:23:04.829Z,9.08
2019-05-07T23:25:32.275Z,9.17
2019-05-07T23:27:58.270Z,9.10
2019-05-07T23:30:24.229Z,9.17
2019-05-07T23:32:50.097Z,9.08
2019-05-07T23:35:15.950Z,9.15
2019-05-07T23:37:42.164Z,9.17
2019-05-07T23:40:17.874Z,9.21
2019-05-07T23:42:45.652Z,9.07
2019-05-07T23:45:12.586Z,9.16
2019-05-07T23:47:38.694Z,9.17
2019-05-07T23:50:05.167Z,9.13
2019-05-07T23:52:31.021Z,9.20
2019-05-07T23:54:56.884Z,9.12
2019-05-07T23:57:23.302Z,9.18
2019-05-07T23:59:49.186Z,9.14
